createdAt,value
2018-12-03T00:01:45.556Z,5.80
2018-12-03T00:04:19.157Z,5.17
2018-12-03T00:06:48.445Z,5.23
2018-12-03T00:09:17.710Z,5.20
2018-12-03T00:11:46.988Z,6.10
2018-12-03T00:14:16.220Z,5.93
2018-12-03T00:16:45.468Z,5.83
2018-12-03T00:19:15.147Z,6.63
2018-12-03T00:21:44.367Z,8.07
2018-12-03T00:24:13.698Z,8.67
2018-12-03T00:26:43.029Z,9.20
2018-12-03T00:29:12.262Z,10.17
2018-12-03T00:31:41.511Z,11.63
2018-12-03T00:34:10.769Z,12.67
2018-12-03T00:36:40.684Z,12.50
2018-12-03T00:39:09.792Z,14.47
2018-12-03T00:41:38.999Z,13.00
2018-12-03T00:44:08.320Z,12.40
2018-12-03T00:46:37.730Z,12.57
2018-12-03T00:49:06.901Z,12.73
2018-12-03T00:51:36.136Z,13.40
2018-12-03T00:54:05.954Z,15.47
2018-12-03T00:56:35.278Z,17.23
2018-12-03T00:59:04.472Z,16.07
2018-12-03T01:01:34.529Z,15.83
2018-12-03T01:04:04.724Z,16.13
2018-12-03T01:06:33.940Z,17.67
2018-12-03T01:09:03.380Z,16.70
2018-12-03T01:11:32.532Z,16.60
2018-12-03T01:14:01.749Z,16.40
2018-12-03T01:16:30.982Z,16.10
2018-12-03T01:19:00.210Z,15.00
2018-12-03T01:21:29.442Z,15.10
2018-12-03T01:23:58.721Z,14.77
2018-12-03T01:26:27.853Z,14.33
2018-12-03T01:28:57.012Z,13.07
2018-12-03T01:31:26.190Z,14.07
2018-12-03T01:33:55.330Z,12.87
2018-12-03T01:36:24.469Z,12.80
2018-12-03T01:38:54.166Z,13.53
2018-12-03T01:41:23.368Z,14.20
2018-12-03T01:43:52.489Z,14.77
2018-12-03T01:46:21.703Z,13.73
2018-12-03T01:48:50.887Z,15.90
2018-12-03T01:51:20.201Z,14.70
2018-12-03T01:53:49.451Z,14.77
2018-12-03T01:56:18.792Z,13.17
2018-12-03T01:58:48.011Z,12.53
2018-12-03T02:01:17.187Z,11.90
2018-12-03T02:03:46.448Z,11.40
2018-12-03T02:06:15.590Z,12.03
2018-12-03T02:08:44.824Z,11.93
2018-12-03T02:11:14.043Z,12.67
2018-12-03T02:13:43.398Z,12.60
2018-12-03T02:16:12.661Z,11.80
2018-12-03T02:18:41.910Z,11.70
2018-12-03T02:21:11.098Z,11.10
2018-12-03T02:23:40.307Z,10.80
2018-12-03T02:26:09.512Z,10.93
2018-12-03T02:28:38.743Z,11.23
2018-12-03T02:31:08.075Z,11.27
2018-12-03T02:33:37.350Z,10.77
2018-12-03T02:36:06.564Z,11.07
2018-12-03T02:38:35.814Z,11.53
2018-12-03T02:41:05.202Z,11.40
2018-12-03T02:43:34.445Z,9.80
2018-12-03T02:46:03.632Z,9.83
2018-12-03T02:48:33.152Z,8.67
2018-12-03T02:51:02.336Z,8.83
2018-12-03T02:53:31.584Z,9.20
2018-12-03T02:56:00.779Z,8.20
2018-12-03T02:58:29.982Z,7.87
2018-12-03T03:00:59.261Z,8.77
2018-12-03T03:03:28.717Z,8.63
2018-12-03T03:05:57.913Z,8.77
2018-12-03T03:08:27.166Z,9.30
2018-12-03T03:10:56.330Z,8.90
2018-12-03T03:13:25.491Z,9.17
2018-12-03T03:15:54.680Z,9.60
2018-12-03T03:18:23.865Z,8.80
2018-12-03T03:20:53.065Z,10.57
2018-12-03T03:23:22.361Z,10.07
2018-12-03T03:25:51.665Z,9.57
2018-12-03T03:28:20.936Z,9.70
2018-12-03T03:30:50.155Z,8.73
2018-12-03T03:33:19.469Z,9.67
2018-12-03T03:35:48.632Z,9.70
2018-12-03T03:38:17.773Z,10.23
2018-12-03T03:40:47.004Z,9.20
2018-12-03T03:43:16.376Z,8.77
2018-12-03T03:45:45.506Z,8.83
2018-12-03T03:48:14.726Z,10.37
2018-12-03T03:50:43.881Z,9.93
2018-12-03T03:53:14.486Z,9.33
2018-12-03T03:55:43.642Z,10.37
2018-12-03T03:58:12.851Z,9.13
2018-12-03T04:00:42.042Z,8.70
2018-12-03T04:03:11.173Z,9.20
2018-12-03T04:05:40.355Z,10.00
2018-12-03T04:08:09.545Z,9.77
2018-12-03T04:10:38.848Z,10.93
2018-12-03T04:13:08.002Z,9.43
2018-12-03T04:15:37.179Z,9.20
2018-12-03T04:18:06.648Z,8.93
2018-12-03T04:20:35.895Z,9.17
2018-12-03T04:23:05.220Z,8.23
2018-12-03T04:25:34.592Z,9.20
2018-12-03T04:28:03.819Z,8.77
2018-12-03T04:30:33.113Z,7.90
2018-12-03T04:33:02.258Z,8.83
2018-12-03T04:35:31.497Z,8.23
2018-12-03T04:38:00.658Z,7.93
2018-12-03T04:40:29.761Z,7.93
2018-12-03T04:42:58.905Z,7.57
2018-12-03T04:45:28.065Z,7.43
2018-12-03T04:47:57.395Z,8.27
2018-12-03T04:50:26.747Z,6.93
2018-12-03T04:52:55.883Z,6.87
2018-12-03T04:55:25.117Z,7.03
2018-12-03T04:57:54.208Z,5.57
2018-12-03T05:00:28.829Z,6.63
2018-12-03T05:02:58.020Z,5.00
2018-12-03T05:05:27.273Z,4.20
2018-12-03T05:07:56.480Z,4.60
2018-12-03T05:10:25.639Z,4.97
2018-12-03T05:12:54.889Z,5.03
2018-12-03T05:15:24.072Z,5.10
2018-12-03T05:17:53.362Z,4.60
2018-12-03T05:20:24.644Z,4.50
2018-12-03T05:22:53.900Z,4.43
2018-12-03T05:25:23.128Z,2.57
2018-12-03T05:27:52.824Z,3.27
2018-12-03T05:30:21.999Z,2.77
2018-12-03T05:32:51.330Z,1.80
2018-12-03T05:35:25.498Z,1.80
2018-12-03T05:37:54.898Z,2.00
2018-12-03T05:40:26.616Z,2.53
2018-12-03T05:42:55.921Z,2.13
2018-12-03T05:45:25.147Z,2.47
2018-12-03T05:47:54.226Z,2.37
2018-12-03T05:50:23.432Z,2.30
2018-12-03T05:52:52.679Z,3.60
2018-12-03T05:55:21.868Z,3.20
2018-12-03T05:57:53.864Z,3.27
2018-12-03T06:00:29.570Z,3.90
2018-12-03T06:02:58.712Z,5.83
2018-12-03T06:05:27.963Z,5.83
2018-12-03T06:07:57.148Z,5.57
2018-12-03T06:10:26.320Z,7.57
2018-12-03T06:12:55.458Z,4.67
2018-12-03T06:15:24.602Z,4.97
2018-12-03T06:17:54.009Z,3.67
2018-12-03T06:20:23.677Z,3.17
2018-12-03T06:22:54.044Z,3.37
2018-12-03T06:25:24.575Z,2.83
2018-12-03T06:27:53.721Z,2.80
2018-12-03T06:30:23.828Z,3.60
2018-12-03T06:32:52.964Z,3.17
2018-12-03T06:35:22.365Z,2.73
2018-12-03T06:37:51.621Z,3.20
2018-12-03T06:40:25.011Z,3.13
2018-12-03T06:42:54.123Z,3.27
2018-12-03T06:45:23.905Z,2.90
2018-12-03T06:48:05.952Z,4.57
2018-12-03T06:50:35.055Z,5.37
2018-12-03T06:53:04.136Z,5.73
2018-12-03T06:55:33.309Z,5.70
2018-12-03T06:58:02.405Z,6.17
2018-12-03T07:00:31.522Z,4.27
2018-12-03T07:03:00.519Z,3.60
2018-12-03T07:05:29.590Z,4.70
2018-12-03T07:07:59.659Z,5.43
2018-12-03T07:10:28.914Z,4.87
2018-12-03T07:13:01.064Z,5.20
2018-12-03T07:15:33.299Z,5.17
2018-12-03T07:18:03.027Z,6.07
2018-12-03T07:20:32.664Z,5.13
2018-12-03T07:23:08.449Z,5.23
2018-12-03T07:25:38.012Z,5.43
2018-12-03T07:28:07.738Z,6.37
2018-12-03T07:30:37.406Z,7.37
2018-12-03T07:33:07.351Z,8.70
2018-12-03T07:35:37.413Z,7.83
2018-12-03T07:38:06.867Z,6.83
2018-12-03T07:40:36.767Z,7.13
2018-12-03T07:43:06.783Z,6.40
2018-12-03T07:45:36.261Z,8.37
2018-12-03T07:48:06.582Z,7.30
2018-12-03T07:50:36.103Z,6.20
2018-12-03T07:53:06.442Z,5.93
2018-12-03T07:55:35.954Z,4.77
2018-12-03T07:58:10.032Z,4.87
2018-12-03T08:00:42.228Z,5.43
2018-12-03T08:03:12.094Z,3.80
2018-12-03T08:05:41.511Z,5.57
2018-12-03T08:08:11.055Z,4.70
2018-12-03T08:10:42.282Z,4.70
2018-12-03T08:13:13.296Z,4.13
2018-12-03T08:15:42.920Z,3.97
2018-12-03T08:18:15.314Z,3.90
2018-12-03T08:21:04.860Z,3.93
2018-12-03T08:23:39.183Z,3.33
2018-12-03T08:26:13.397Z,3.00
2018-12-03T08:28:43.192Z,2.67
2018-12-03T08:31:12.836Z,2.87
2018-12-03T08:33:42.596Z,2.83
2018-12-03T08:36:12.050Z,2.70
2018-12-03T08:38:42.199Z,2.57
2018-12-03T08:41:11.699Z,2.97
2018-12-03T08:43:41.620Z,2.57
2018-12-03T08:46:11.621Z,3.10
2018-12-03T08:48:42.835Z,3.00
2018-12-03T08:51:13.494Z,3.27
2018-12-03T08:53:45.986Z,2.80
2018-12-03T08:56:15.822Z,2.93
2018-12-03T08:58:45.344Z,2.80
2018-12-03T09:01:16.982Z,2.77
2018-12-03T09:03:56.816Z,3.60
2018-12-03T09:06:26.244Z,3.03
2018-12-03T09:08:55.938Z,3.10
2018-12-03T09:11:25.916Z,3.53
2018-12-03T09:13:55.608Z,3.77
2018-12-03T09:16:25.602Z,2.90
2018-12-03T09:18:55.976Z,3.10
2018-12-03T09:21:26.056Z,2.90
2018-12-03T09:24:00.277Z,3.10
2018-12-03T09:26:30.071Z,2.97
2018-12-03T09:28:59.510Z,3.50
2018-12-03T09:31:28.846Z,2.70
2018-12-03T09:33:59.606Z,2.67
2018-12-03T09:36:29.930Z,2.90
2018-12-03T09:39:02.498Z,3.10
2018-12-03T09:41:31.990Z,3.30
2018-12-03T09:44:01.236Z,3.70
2018-12-03T09:46:31.068Z,3.30
2018-12-03T09:49:00.759Z,3.20
2018-12-03T09:51:32.193Z,3.30
2018-12-03T09:54:02.453Z,3.50
2018-12-03T09:56:35.217Z,3.43
2018-12-03T09:59:09.592Z,3.07
2018-12-03T10:01:39.061Z,3.40
2018-12-03T10:04:12.358Z,4.10
2018-12-03T10:06:41.800Z,3.20
2018-12-03T10:09:12.433Z,3.70
2018-12-03T10:11:42.612Z,3.80
2018-12-03T10:14:14.972Z,4.80
2018-12-03T10:16:41.794Z,4.00
2018-12-03T10:19:11.347Z,3.57
2018-12-03T10:21:40.985Z,3.37
2018-12-03T10:24:12.281Z,3.30
2018-12-03T10:26:41.900Z,3.00
2018-12-03T10:29:16.060Z,3.00
2018-12-03T10:31:45.709Z,3.53
2018-12-03T10:34:17.268Z,3.33
2018-12-03T10:36:53.596Z,3.03
2018-12-03T10:39:27.451Z,3.50
2018-12-03T10:42:00.971Z,3.20
2018-12-03T10:44:30.622Z,3.10
2018-12-03T10:47:00.357Z,3.33
2018-12-03T10:49:29.936Z,3.77
2018-12-03T10:51:59.449Z,3.40
2018-12-03T10:54:29.754Z,3.57
2018-12-03T10:57:03.012Z,2.97
2018-12-03T10:59:32.468Z,2.90
2018-12-03T11:04:10.951Z,2.67
2018-12-03T11:06:40.612Z,3.17
2018-12-03T11:09:10.367Z,3.87
2018-12-03T11:11:40.393Z,3.27
2018-12-03T11:14:10.295Z,3.37
2018-12-03T11:16:40.464Z,4.00
2018-12-03T11:19:10.457Z,3.73
2018-12-03T11:21:40.143Z,4.03
2018-12-03T11:24:14.288Z,3.40
2018-12-03T11:26:45.545Z,3.73
2018-12-03T11:29:16.288Z,3.97
2018-12-03T11:31:45.948Z,2.90
2018-12-03T11:34:16.382Z,3.83
2018-12-03T11:36:48.682Z,3.40
2018-12-03T11:39:32.216Z,3.27
2018-12-03T11:42:04.772Z,3.60
2018-12-03T11:44:34.273Z,3.77
2018-12-03T11:47:04.164Z,3.57
2018-12-03T11:49:33.656Z,3.80
2018-12-03T11:52:03.652Z,3.27
2018-12-03T11:54:33.510Z,3.90
2018-12-03T11:57:03.226Z,3.67
2018-12-03T11:59:32.867Z,4.07
2018-12-03T12:02:02.432Z,4.03
2018-12-03T12:04:31.763Z,4.10
2018-12-03T12:07:01.235Z,4.03
2018-12-03T12:09:30.844Z,3.50
2018-12-03T12:12:00.721Z,4.10
2018-12-03T12:14:30.435Z,5.93
2018-12-03T12:16:59.857Z,4.70
2018-12-03T12:19:29.385Z,5.27
2018-12-03T12:21:58.746Z,4.23
2018-12-03T12:24:28.337Z,4.07
2018-12-03T12:26:57.876Z,3.80
2018-12-03T12:29:27.321Z,3.90
2018-12-03T12:31:56.860Z,3.33
2018-12-03T12:34:26.094Z,3.47
2018-12-03T12:36:55.606Z,3.30
2018-12-03T12:39:25.020Z,3.83
2018-12-03T12:41:54.583Z,4.00
2018-12-03T12:44:24.203Z,3.60
2018-12-03T12:46:53.897Z,3.93
2018-12-03T12:49:23.530Z,4.07
2018-12-03T12:51:53.453Z,3.83
2018-12-03T12:54:23.386Z,3.53
2018-12-03T12:56:52.985Z,4.07
2018-12-03T12:59:22.612Z,3.83
2018-12-03T13:01:52.202Z,3.17
2018-12-03T13:04:21.608Z,3.37
2018-12-03T13:06:50.793Z,3.40
2018-12-03T13:09:20.339Z,3.50
2018-12-03T13:11:49.667Z,3.40
2018-12-03T13:14:19.037Z,3.27
2018-12-03T13:17:42.114Z,3.57
2018-12-03T13:20:13.385Z,3.77
2018-12-03T13:22:43.087Z,4.63
2018-12-03T13:25:16.260Z,2.97
2018-12-03T13:27:45.846Z,3.17
2018-12-03T13:30:17.721Z,3.20
2018-12-03T13:32:47.942Z,2.97
2018-12-03T13:35:17.753Z,2.90
2018-12-03T13:37:47.395Z,2.93
2018-12-03T13:40:18.190Z,3.87
2018-12-03T13:42:48.123Z,2.90
2018-12-03T13:45:25.437Z,3.23
2018-12-03T13:47:56.767Z,3.83
2018-12-03T13:50:26.737Z,3.77
2018-12-03T13:52:56.183Z,2.77
2018-12-03T13:55:25.972Z,2.90
2018-12-03T13:57:55.373Z,4.13
2018-12-03T14:00:26.217Z,3.07
2018-12-03T14:03:01.933Z,3.03
2018-12-03T14:05:34.713Z,3.77
2018-12-03T14:08:16.425Z,3.13
2018-12-03T14:10:57.051Z,4.20
2018-12-03T14:13:37.901Z,3.90
2018-12-03T14:16:13.947Z,3.10
2018-12-03T14:18:52.944Z,3.10
2018-12-03T14:21:27.845Z,3.83
2018-12-03T14:23:58.939Z,3.33
2018-12-03T14:26:28.998Z,4.10
2018-12-03T14:28:58.453Z,3.70
2018-12-03T14:31:28.411Z,3.60
2018-12-03T14:33:58.365Z,3.30
2018-12-03T14:36:28.134Z,3.33
2018-12-03T14:38:58.106Z,4.07
2018-12-03T14:41:28.229Z,3.73
2018-12-03T14:43:58.005Z,3.63
2018-12-03T14:46:28.046Z,3.47
2018-12-03T14:48:57.647Z,3.90
2018-12-03T14:51:27.081Z,4.50
2018-12-03T14:53:56.680Z,4.03
2018-12-03T14:56:25.850Z,4.50
2018-12-03T14:58:55.363Z,4.07
2018-12-03T15:01:25.065Z,4.80
2018-12-03T15:03:54.433Z,11.33
2018-12-03T15:06:23.888Z,6.87
2018-12-03T15:08:53.691Z,5.47
2018-12-03T15:11:23.347Z,5.57
2018-12-03T15:13:52.735Z,5.53
2018-12-03T15:16:21.917Z,4.27
2018-12-03T15:18:51.501Z,5.00
2018-12-03T15:21:20.783Z,6.03
2018-12-03T15:23:50.023Z,5.03
2018-12-03T15:26:19.264Z,5.00
2018-12-03T15:28:48.486Z,6.07
2018-12-03T15:31:17.629Z,6.07
2018-12-03T15:33:46.705Z,6.20
2018-12-03T15:36:15.973Z,5.47
2018-12-03T15:38:45.295Z,6.20
2018-12-03T15:41:14.674Z,5.63
2018-12-03T15:43:44.743Z,5.57
2018-12-03T15:46:14.096Z,5.97
2018-12-03T15:48:43.575Z,5.87
2018-12-03T15:51:13.719Z,5.63
2018-12-03T15:53:44.893Z,5.50
2018-12-03T15:56:14.292Z,6.20
2018-12-03T15:58:43.477Z,6.67
2018-12-03T16:01:14.503Z,6.57
2018-12-03T16:03:43.938Z,6.03
2018-12-03T16:06:13.255Z,6.33
2018-12-03T16:08:42.637Z,7.80
2018-12-03T16:11:11.740Z,6.60
2018-12-03T16:13:40.799Z,6.17
2018-12-03T16:16:10.189Z,6.10
2018-12-03T16:18:39.469Z,7.13
2018-12-03T16:21:08.801Z,6.97
2018-12-03T16:23:38.683Z,6.00
2018-12-03T16:26:08.075Z,7.37
2018-12-03T16:28:37.365Z,6.03
2018-12-03T16:31:06.578Z,6.17
2018-12-03T16:33:36.243Z,7.40
2018-12-03T16:36:05.529Z,5.83
2018-12-03T16:38:34.903Z,6.80
2018-12-03T16:41:04.187Z,6.20
2018-12-03T16:43:33.287Z,6.87
2018-12-03T16:46:02.704Z,7.40
2018-12-03T16:48:32.016Z,6.90
2018-12-03T16:51:01.110Z,6.13
2018-12-03T16:53:31.371Z,6.77
2018-12-03T16:56:00.760Z,7.00
2018-12-03T16:58:30.064Z,6.60
2018-12-03T17:00:59.392Z,6.70
2018-12-03T17:03:28.582Z,6.43
2018-12-03T17:05:57.892Z,6.93
2018-12-03T17:08:27.150Z,6.83
2018-12-03T17:10:56.282Z,6.57
2018-12-03T17:13:25.762Z,6.97
2018-12-03T17:15:54.911Z,6.53
2018-12-03T17:18:24.194Z,7.07
2018-12-03T17:21:09.611Z,6.77
2018-12-03T17:23:52.736Z,6.60
2018-12-03T17:26:22.292Z,6.27
2018-12-03T17:28:51.364Z,6.27
2018-12-03T17:31:20.590Z,7.20
2018-12-03T17:33:49.792Z,6.17
2018-12-03T17:36:19.087Z,5.63
2018-12-03T17:38:48.122Z,6.10
2018-12-03T17:41:17.553Z,5.93
2018-12-03T17:43:46.722Z,5.40
2018-12-03T17:46:16.320Z,5.37
2018-12-03T17:48:45.467Z,5.90
2018-12-03T17:51:17.689Z,5.23
2018-12-03T17:53:47.085Z,5.07
2018-12-03T17:56:16.167Z,5.73
2018-12-03T17:58:45.563Z,4.73
2018-12-03T18:01:14.981Z,5.80
2018-12-03T18:03:44.154Z,6.13
2018-12-03T18:06:17.021Z,5.37
2018-12-03T18:08:44.393Z,5.53
2018-12-03T18:11:13.836Z,5.47
2018-12-03T18:13:43.019Z,5.53
2018-12-03T18:16:13.401Z,4.93
2018-12-03T18:18:42.477Z,5.30
2018-12-03T18:21:11.575Z,5.13
2018-12-03T18:23:40.689Z,4.60
2018-12-03T18:26:10.053Z,5.57
2018-12-03T18:28:40.252Z,5.37
2018-12-03T18:31:09.341Z,4.53
2018-12-03T18:33:38.687Z,4.70
2018-12-03T18:36:08.040Z,4.57
2018-12-03T18:38:37.285Z,4.33
2018-12-03T18:41:06.544Z,4.57
2018-12-03T18:43:36.843Z,5.10
2018-12-03T18:46:06.375Z,4.40
2018-12-03T18:48:35.718Z,3.90
2018-12-03T18:51:05.820Z,4.70
2018-12-03T18:53:37.011Z,5.10
2018-12-03T18:56:06.456Z,5.03
2018-12-03T18:58:43.118Z,4.47
2018-12-03T19:01:12.294Z,5.37
2018-12-03T19:03:41.523Z,4.83
2018-12-03T19:06:10.838Z,3.80
2018-12-03T19:08:39.972Z,3.97
2018-12-03T19:11:09.312Z,4.40
2018-12-03T19:13:38.622Z,4.50
2018-12-03T19:16:07.781Z,4.83
2018-12-03T19:18:37.143Z,4.53
2018-12-03T19:21:06.339Z,4.27
2018-12-03T19:23:35.717Z,4.03
2018-12-03T19:26:05.047Z,4.10
2018-12-03T19:28:34.639Z,4.13
2018-12-03T19:31:04.242Z,4.47
2018-12-03T19:33:33.592Z,4.43
2018-12-03T19:36:02.741Z,3.10
2018-12-03T19:38:31.874Z,3.93
2018-12-03T19:41:01.374Z,4.37
2018-12-03T19:43:30.525Z,4.40
2018-12-03T19:46:00.069Z,4.23
2018-12-03T19:48:29.774Z,3.93
2018-12-03T19:50:59.226Z,4.03
2018-12-03T19:53:28.470Z,4.10
2018-12-03T19:55:57.845Z,3.60
2018-12-03T19:58:32.266Z,4.00
2018-12-03T20:01:01.570Z,4.73
2018-12-03T20:03:30.634Z,4.77
2018-12-03T20:05:59.889Z,4.07
2018-12-03T20:08:29.348Z,4.67
2018-12-03T20:10:59.377Z,4.10
2018-12-03T20:13:28.700Z,4.33
2018-12-03T20:15:57.845Z,4.37
2018-12-03T20:18:27.221Z,4.47
2018-12-03T20:21:00.762Z,4.37
2018-12-03T20:23:40.646Z,4.30
2018-12-03T20:26:23.190Z,4.23
2018-12-03T20:30:00.008Z,4.40
2018-12-03T20:32:41.680Z,4.13
2018-12-03T20:35:28.366Z,3.70
2018-12-03T20:38:13.044Z,4.57
2018-12-03T20:41:54.588Z,4.00
2018-12-03T20:44:31.567Z,4.27
2018-12-03T20:47:15.320Z,4.13
2018-12-03T20:49:53.623Z,4.70
2018-12-03T20:52:26.271Z,4.03
2018-12-03T20:54:58.512Z,4.00
2018-12-03T20:57:27.760Z,3.70
2018-12-03T20:59:57.223Z,5.13
2018-12-03T21:02:27.823Z,3.87
2018-12-03T21:04:57.196Z,4.20
2018-12-03T21:07:26.395Z,4.40
2018-12-03T21:09:55.807Z,4.00
2018-12-03T21:12:25.488Z,4.23
2018-12-03T21:14:54.766Z,3.80
2018-12-03T21:17:24.413Z,3.90
2018-12-03T21:19:59.240Z,4.40
2018-12-03T21:22:28.538Z,4.07
2018-12-03T21:24:57.893Z,4.40
2018-12-03T21:27:27.206Z,3.53
2018-12-03T21:29:57.204Z,4.10
2018-12-03T21:32:27.174Z,5.10
2018-12-03T21:34:56.316Z,5.60
2018-12-03T21:37:25.648Z,5.17
2018-12-03T21:39:55.053Z,4.63
2018-12-03T21:42:24.490Z,4.20
2018-12-03T21:44:53.676Z,5.00
2018-12-03T21:47:23.248Z,4.67
2018-12-03T21:49:52.701Z,5.40
2018-12-03T21:52:22.036Z,5.67
2018-12-03T21:54:51.747Z,5.53
2018-12-03T21:57:20.875Z,6.17
2018-12-03T21:59:50.300Z,6.00
2018-12-03T22:02:24.044Z,6.03
2018-12-03T22:04:50.574Z,5.40
2018-12-03T22:07:19.963Z,6.10
2018-12-03T22:09:49.324Z,6.03
2018-12-03T22:12:18.641Z,6.50
2018-12-03T22:14:47.855Z,5.93
2018-12-03T22:17:17.161Z,6.20
2018-12-03T22:19:46.339Z,5.47
2018-12-03T22:22:15.799Z,6.10
2018-12-03T22:24:45.205Z,6.80
2018-12-03T22:27:14.623Z,6.20
2018-12-03T22:29:43.836Z,6.03
2018-12-03T22:32:13.133Z,6.83
2018-12-03T22:34:42.683Z,6.33
2018-12-03T22:37:11.983Z,6.23
2018-12-03T22:39:46.229Z,5.80
2018-12-03T22:42:12.871Z,5.40
2018-12-03T22:44:42.339Z,6.33
2018-12-03T22:47:12.031Z,6.37
2018-12-03T22:49:41.146Z,6.03
2018-12-03T22:52:10.659Z,5.27
2018-12-03T22:54:40.017Z,5.20
2018-12-03T22:57:09.290Z,5.30
2018-12-03T22:59:38.620Z,5.10
2018-12-03T23:02:07.984Z,5.33
2018-12-03T23:04:40.173Z,5.20
2018-12-03T23:07:09.793Z,5.87
2018-12-03T23:09:39.115Z,5.83
2018-12-03T23:12:08.292Z,5.83
2018-12-03T23:14:37.450Z,5.47
2018-12-03T23:17:06.996Z,5.57
2018-12-03T23:19:36.156Z,6.70
2018-12-03T23:22:05.287Z,7.00
2018-12-03T23:24:34.582Z,6.43
2018-12-03T23:27:03.935Z,6.10
2018-12-03T23:29:33.368Z,4.40
2018-12-03T23:32:02.550Z,2.80
2018-12-03T23:34:32.002Z,2.50
2018-12-03T23:37:01.118Z,2.23
2018-12-03T23:39:30.360Z,1.77
2018-12-03T23:41:59.558Z,1.40
2018-12-03T23:44:28.859Z,1.40
2018-12-03T23:46:58.225Z,1.77
2018-12-03T23:49:27.341Z,1.80
2018-12-03T23:51:56.490Z,2.13
2018-12-03T23:54:25.622Z,1.90
2018-12-03T23:56:54.925Z,2.30
2018-12-03T23:59:24.174Z,2.57
